Time;durP1;ratioP1;P1;durP2;ratioP2;P2;SDS_P1;SDS_P2;PMS_P1;PMS_P2;Temp;Humidity;BMP_temperature;BMP_pressure;BME280_temperature;BME280_humidity;BME280_pressure;Samples;Min_cycle;Max_cycle;Signal;HPM_P1;HPM_P2
2022/05/04 00:01:36;;;;;;;15.80;10.48;;;10.10;99.90;;;;;;4996727;28;20053;-64
2022/05/04 00:04:03;;;;;;;17.77;11.30;;;10.10;99.90;;;;;;4996846;28;20045;-64
2022/05/04 00:06:29;;;;;;;11.77;10.40;;;10.10;99.90;;;;;;4995735;28;20070;-65
2022/05/04 00:08:56;;;;;;;12.80;9.75;;;10.10;99.90;;;;;;4995524;28;20088;-64
2022/05/04 00:11:23;;;;;;;;;;;10.10;99.90;;;;;;4997196;28;20057;-64
2022/05/04 00:13:50;;;;;;;14.25;11.15;;;10.10;99.90;;;;;;4996561;28;20332;-64
2022/05/04 00:16:16;;;;;;;14.23;11.90;;;10.10;99.90;;;;;;5006143;28;20120;-64
2022/05/04 00:18:43;;;;;;;;;;;10.10;99.90;;;;;;5015198;28;21001;-65
2022/05/04 00:21:10;;;;;;;15.15;10.05;;;10.00;99.90;;;;;;5026872;28;20426;-64
2022/05/04 00:23:37;;;;;;;;;;;10.00;99.90;;;;;;5016037;28;20115;-65
2022/05/04 00:26:04;;;;;;;16.10;11.18;;;10.00;99.90;;;;;;5014728;28;20027;-65
2022/05/04 00:28:31;;;;;;;15.43;10.55;;;10.00;99.90;;;;;;5000622;28;20172;-65
2022/05/04 00:30:57;;;;;;;14.27;10.40;;;10.00;99.90;;;;;;4996380;28;20473;-64
2022/05/04 00:33:24;;;;;;;16.08;9.95;;;10.00;99.90;;;;;;4996093;28;20688;-64
2022/05/04 00:35:51;;;;;;;;;;;10.00;99.90;;;;;;4995714;28;20700;-64
2022/05/04 00:38:18;;;;;;;13.25;10.25;;;10.00;99.90;;;;;;5010380;28;19925;-64
2022/05/04 00:40:44;;;;;;;16.95;11.85;;;10.00;99.90;;;;;;5005975;28;20512;-64
2022/05/04 00:43:24;;;;;;;;;;;10.00;99.90;;;;;;5016276;28;20049;-64
2022/05/04 00:45:51;;;;;;;13.77;10.35;;;10.00;99.90;;;;;;5015266;28;20767;-64
2022/05/04 00:48:18;;;;;;;14.25;11.27;;;10.00;99.90;;;;;;5014758;28;20064;-64
2022/05/04 00:50:48;;;;;;;14.98;10.30;;;10.00;99.90;;;;;;5015644;28;20111;-65
2022/05/04 00:53:17;;;;;;;12.40;10.05;;;10.00;99.90;;;;;;5015437;28;20045;-65
2022/05/04 00:55:45;;;;;;;13.18;9.80;;;10.00;99.90;;;;;;5015913;28;20699;-65
2022/05/04 01:01:00;;;;;;;13.30;10.25;;;10.00;99.90;;;;;;5015428;28;20064;-64
2022/05/04 01:03:27;;;;;;;14.30;11.10;;;9.90;99.90;;;;;;5014617;28;20048;-65
2022/05/04 01:05:54;;;;;;;13.63;10.15;;;9.90;99.90;;;;;;5013875;28;20401;-65
2022/05/04 01:08:21;;;;;;;;;;;9.90;99.90;;;;;;5014540;28;20297;-64
2022/05/04 01:10:48;;;;;;;12.48;9.45;;;9.90;99.90;;;;;;5030765;28;19928;-66
2022/05/04 01:13:19;;;;;;;13.00;9.95;;;9.80;99.90;;;;;;5014749;28;20411;-65
2022/05/04 01:15:46;;;;;;;13.05;10.55;;;9.80;99.90;;;;;;5015473;28;20052;-65
2022/05/04 01:18:13;;;;;;;12.65;9.65;;;9.80;99.90;;;;;;4999890;28;20114;-65
2022/05/04 01:20:40;;;;;;;14.10;10.77;;;9.80;99.90;;;;;;5013900;28;20063;-65
2022/05/04 01:23:07;;;;;;;;;;;9.70;99.90;;;;;;5016015;28;20049;-64
2022/05/04 01:25:34;;;;;;;12.80;9.27;;;9.70;99.90;;;;;;5014860;28;19925;-65
2022/05/04 01:28:04;;;;;;;11.65;9.38;;;9.70;99.90;;;;;;5009280;28;20036;-64
2022/05/04 01:30:32;;;;;;;16.42;10.32;;;9.70;99.90;;;;;;4995789;28;20050;-64
2022/05/04 01:33:02;;;;;;;11.65;9.65;;;9.70;99.90;;;;;;4995062;28;20056;-65
2022/05/04 01:35:29;;;;;;;11.27;9.57;;;9.70;99.90;;;;;;4994976;28;20049;-65
2022/05/04 01:37:56;;;;;;;11.35;9.75;;;9.70;99.90;;;;;;4993673;28;20053;-64
2022/05/04 01:40:23;;;;;;;;;;;9.70;99.90;;;;;;5001237;28;20607;-65
2022/05/04 01:42:50;;;;;;;11.48;8.80;;;9.70;99.90;;;;;;5012411;28;19965;-65
2022/05/04 01:45:16;;;;;;;;;;;9.70;99.90;;;;;;5015524;28;20368;-65
2022/05/04 01:47:50;;;;;;;16.83;9.35;;;9.70;99.90;;;;;;5013153;28;19953;-65
2022/05/04 01:50:17;;;;;;;10.13;8.70;;;9.70;99.90;;;;;;5014503;28;20042;-64
2022/05/04 01:52:44;;;;;;;13.82;8.68;;;9.70;99.90;;;;;;5013971;28;20091;-65
2022/05/04 01:55:12;;;;;;;10.57;7.85;;;9.80;99.90;;;;;;5014565;28;20049;-64
2022/05/04 01:57:39;;;;;;;8.80;7.70;;;9.70;99.90;;;;;;5013648;28;20052;-64
2022/05/04 02:00:07;;;;;;;;;;;9.70;99.90;;;;;;5014580;28;20523;-64
2022/05/04 02:02:41;;;;;;;7.93;7.13;;;9.70;99.90;;;;;;5014108;28;20696;-64
2022/05/04 02:05:08;;;;;;;9.60;6.93;;;9.70;99.90;;;;;;5013931;28;20084;-65
2022/05/04 02:07:36;;;;;;;8.32;7.22;;;9.70;99.90;;;;;;5013589;28;20112;-63
2022/05/04 02:10:04;;;;;;;15.55;9.27;;;9.60;99.90;;;;;;5013510;28;20488;-64
2022/05/04 02:12:31;;;;;;;10.05;8.13;;;9.50;99.90;;;;;;5013619;28;20107;-64
2022/05/04 02:14:58;;;;;;;9.80;8.20;;;9.50;99.90;;;;;;5013891;28;20045;-63
2022/05/04 02:17:25;;;;;;;11.20;8.65;;;9.50;99.90;;;;;;5012978;28;20069;-64
2022/05/04 02:19:52;;;;;;;10.32;8.32;;;9.40;99.90;;;;;;5013088;28;20794;-64
2022/05/04 02:22:19;;;;;;;13.70;9.52;;;9.40;99.90;;;;;;5013537;28;20041;-64
2022/05/04 02:24:46;;;;;;;;;;;9.30;99.90;;;;;;5014904;28;20257;-64
2022/05/04 02:27:13;;;;;;;9.50;8.35;;;9.30;99.90;;;;;;5012944;28;19925;-64
2022/05/04 02:29:40;;;;;;;11.27;8.98;;;9.20;99.90;;;;;;5009416;28;20119;-64
2022/05/04 02:32:07;;;;;;;;;;;9.20;99.90;;;;;;5014098;28;20060;-63
2022/05/04 02:34:33;;;;;;;13.65;9.23;;;9.10;99.90;;;;;;5013789;28;19925;-64
2022/05/04 02:39:45;;;;;;;14.85;9.73;;;9.00;99.90;;;;;;5013464;28;20041;-64
2022/05/04 02:42:12;;;;;;;9.13;8.05;;;9.00;99.90;;;;;;5013980;28;20049;-63
2022/05/04 02:44:45;;;;;;;10.38;8.40;;;8.90;99.90;;;;;;5014117;28;20049;-63
2022/05/04 02:47:12;;;;;;;10.65;8.98;;;8.90;99.90;;;;;;5013472;28;20095;-63
2022/05/04 02:49:39;;;;;;;;;;;8.90;99.90;;;;;;5013976;28;20095;-63
2022/05/04 02:52:06;;;;;;;11.20;7.63;;;8.90;99.90;;;;;;5013793;28;19925;-63
2022/05/04 02:54:32;;;;;;;15.00;7.78;;;8.80;99.90;;;;;;5013417;28;20053;-63
2022/05/04 02:56:59;;;;;;;9.55;7.82;;;8.80;99.90;;;;;;5012591;28;20045;-64
2022/05/04 02:59:27;;;;;;;13.00;8.95;;;8.80;99.90;;;;;;5015843;28;20095;-64
2022/05/04 03:04:39;;;;;;;9.38;7.43;;;8.80;99.90;;;;;;5017875;28;20041;-63
2022/05/04 03:07:06;;;;;;;;;;;8.80;99.90;;;;;;5017094;28;20045;-64
2022/05/04 03:09:33;;;;;;;9.88;7.85;;;8.80;99.90;;;;;;5017786;28;19967;-64
2022/05/04 03:11:59;;;;;;;10.60;7.85;;;8.70;99.90;;;;;;5016708;28;20127;-63
2022/05/04 03:14:27;;;;;;;;;;;8.70;99.90;;;;;;5018278;28;20045;-63
2022/05/04 03:16:55;;;;;;;10.77;8.65;;;8.70;99.90;;;;;;5014606;28;20381;-64
2022/05/04 03:19:23;;;;;;;9.95;8.05;;;8.70;99.90;;;;;;5016461;28;20745;-64
2022/05/04 03:21:51;;;;;;;10.65;8.10;;;8.70;99.90;;;;;;5015982;28;20582;-63
2022/05/04 03:24:18;;;;;;;10.02;7.72;;;8.70;99.90;;;;;;5015940;28;20419;-63
2022/05/04 03:26:45;;;;;;;10.25;8.60;;;8.70;99.90;;;;;;5016498;28;20038;-65
2022/05/04 03:29:12;;;;;;;;;;;8.60;99.90;;;;;;5016878;28;20068;-64
2022/05/04 03:31:39;;;;;;;10.88;8.50;;;8.60;99.90;;;;;;5016230;28;19925;-63
2022/05/04 03:34:06;;;;;;;10.93;9.23;;;8.50;99.90;;;;;;5016915;28;20053;-63
2022/05/04 03:36:35;;;;;;;12.27;8.55;;;8.50;99.90;;;;;;5017486;28;20131;-63
2022/05/04 03:39:03;;;;;;;14.88;10.27;;;8.50;99.90;;;;;;5015177;28;20056;-63
2022/05/04 03:41:31;;;;;;;10.80;9.02;;;8.50;99.90;;;;;;5016044;28;20863;-63
2022/05/04 03:43:58;;;;;;;13.02;9.05;;;8.50;99.90;;;;;;5016945;28;20050;-64
2022/05/04 03:46:26;;;;;;;11.30;9.73;;;8.50;99.90;;;;;;5016797;28;20049;-64
2022/05/04 03:48:55;;;;;;;13.13;9.82;;;8.50;99.90;;;;;;5015610;28;20098;-65
2022/05/04 03:51:23;;;;;;;13.48;9.40;;;8.50;99.90;;;;;;5016761;28;20139;-64
2022/05/04 03:53:51;;;;;;;11.32;7.82;;;8.40;99.90;;;;;;5017128;28;20507;-64
2022/05/04 03:56:19;;;;;;;8.50;7.15;;;8.50;99.90;;;;;;5016695;28;20840;-64
2022/05/04 03:58:47;;;;;;;9.73;7.53;;;8.50;99.90;;;;;;5016112;28;20064;-65
2022/05/04 04:01:14;;;;;;;12.27;8.05;;;8.50;99.90;;;;;;5015387;28;20755;-64
2022/05/04 04:03:41;;;;;;;10.30;8.18;;;8.50;99.90;;;;;;5016224;28;20041;-64
2022/05/04 04:06:08;;;;;;;;;;;8.50;99.90;;;;;;4999551;28;20080;-64
2022/05/04 04:08:35;;;;;;;11.82;7.35;;;8.50;99.90;;;;;;5013919;28;19975;-64
2022/05/04 04:11:02;;;;;;;;;;;8.50;99.90;;;;;;5016404;28;20069;-64
2022/05/04 04:13:29;;;;;;;14.18;8.35;;;8.50;99.90;;;;;;5016349;28;19974;-64
2022/05/04 04:15:56;;;;;;;9.63;7.60;;;8.50;99.90;;;;;;5016394;28;20482;-64
2022/05/04 04:18:23;;;;;;;;;;;8.40;99.90;;;;;;5015564;28;20120;-64
2022/05/04 04:23:37;;;;;;;17.60;7.82;;;8.50;99.90;;;;;;4996908;28;20788;-64
2022/05/04 04:26:05;;;;;;;12.85;7.95;;;8.50;99.90;;;;;;4995672;28;20038;-64
2022/05/04 04:28:34;;;;;;;9.10;7.22;;;8.40;99.90;;;;;;4995642;28;20073;-64
2022/05/04 04:31:02;;;;;;;8.30;7.43;;;8.50;99.90;;;;;;5002870;28;20053;-63
2022/05/04 04:33:29;;;;;;;10.85;8.82;;;8.50;99.90;;;;;;4996229;28;20060;-63
2022/05/04 04:35:57;;;;;;;10.40;8.32;;;8.50;99.90;;;;;;4995933;28;20045;-63
2022/05/04 04:38:24;;;;;;;11.43;8.50;;;8.50;99.90;;;;;;4993934;28;20073;-64
2022/05/04 04:40:51;;;;;;;14.68;7.45;;;8.60;99.90;;;;;;5006731;28;20049;-57
2022/05/04 04:43:18;;;;;;;8.68;7.47;;;8.60;99.90;;;;;;5014501;28;20045;-55
2022/05/04 04:45:46;;;;;;;9.38;7.43;;;8.60;99.90;;;;;;5016123;28;20554;-54
2022/05/04 04:48:16;;;;;;;7.93;6.90;;;8.70;99.90;;;;;;5013468;28;20049;-55
2022/05/04 04:50:44;;;;;;;9.07;7.65;;;8.70;99.90;;;;;;5015755;28;20539;-56
2022/05/04 04:53:12;;;;;;;8.90;7.25;;;8.80;99.90;;;;;;5015170;28;20045;-57
2022/05/04 04:55:42;;;;;;;7.72;6.68;;;8.90;99.90;;;;;;5014846;28;20128;-55
2022/05/04 04:58:09;;;;;;;10.18;7.20;;;9.00;99.90;;;;;;5014650;28;20049;-58
2022/05/04 05:00:36;;;;;;;;;;;9.00;99.90;;;;;;5015773;28;20354;-59
2022/05/04 05:03:03;;;;;;;9.80;7.75;;;9.10;99.90;;;;;;5015150;28;19928;-59
2022/05/04 05:05:31;;;;;;;9.32;7.15;;;9.20;99.90;;;;;;5015328;28;20044;-57
2022/05/04 05:07:58;;;;;;;7.82;6.85;;;9.20;99.90;;;;;;5014302;28;20817;-60
2022/05/04 05:10:25;;;;;;;7.70;6.68;;;9.20;99.90;;;;;;5014578;28;20589;-60
2022/05/04 05:12:51;;;;;;;;;;;9.30;99.90;;;;;;5015041;28;20107;-60
2022/05/04 05:18:04;;;;;;;6.18;5.57;;;9.40;99.90;;;;;;5013489;28;20065;-59
2022/05/04 05:20:32;;;;;;;6.57;5.68;;;9.50;99.90;;;;;;5014298;28;20045;-56
2022/05/04 05:23:00;;;;;;;7.88;6.78;;;9.50;99.90;;;;;;5013142;28;20042;-57
2022/05/04 05:25:28;;;;;;;9.18;6.95;;;9.60;99.90;;;;;;5014727;28;20037;-56
2022/05/04 05:27:56;;;;;;;7.80;6.38;;;9.60;99.90;;;;;;5014510;28;20736;-57
2022/05/04 05:30:23;;;;;;;8.02;5.25;;;9.70;99.90;;;;;;5013667;28;20045;-57
2022/05/04 05:32:50;;;;;;;7.55;5.47;;;9.80;99.90;;;;;;5003851;28;20052;-57
2022/05/04 05:35:17;;;;;;;;;;;9.80;99.90;;;;;;4995914;28;20046;-57
2022/05/04 05:37:44;;;;;;;10.50;6.25;;;9.90;99.90;;;;;;4994402;28;19921;-54
2022/05/04 05:40:16;;;;;;;8.57;6.75;;;10.00;99.90;;;;;;5001116;28;20044;-56
2022/05/04 05:42:43;;;;;;;9.00;7.47;;;10.10;99.90;;;;;;5014651;28;20055;-54
2022/05/04 05:45:10;;;;;;;9.52;7.70;;;10.10;99.90;;;;;;5000266;28;20050;-57
2022/05/04 05:47:39;;;;;;;8.32;7.32;;;10.20;99.90;;;;;;4993883;28;20076;-55
2022/05/04 05:50:07;;;;;;;6.72;6.03;;;10.20;99.90;;;;;;4993485;28;20180;-52
2022/05/04 05:52:34;;;;;;;8.30;5.43;;;10.20;99.90;;;;;;4994890;28;20050;-61
2022/05/04 05:55:01;;;;;;;5.85;5.25;;;10.30;99.90;;;;;;4993740;28;20046;-53
2022/05/04 05:57:27;;;;;;;;;;;10.40;99.90;;;;;;4994291;28;20486;-53
2022/05/04 06:00:00;;;;;;;5.38;4.88;;;10.40;99.90;;;;;;4993665;28;19951;-52
2022/05/04 06:02:37;;;;;;;7.75;5.95;;;10.50;99.90;;;;;;4993776;28;20056;-53
2022/05/04 06:05:05;;;;;;;6.72;6.03;;;10.50;99.90;;;;;;4995007;28;20859;-52
2022/05/04 06:07:32;;;;;;;5.88;4.85;;;10.60;99.90;;;;;;4993982;28;20045;-54
2022/05/04 06:09:58;;;;;;;5.63;4.95;;;10.70;99.90;;;;;;4994438;28;20797;-55
2022/05/04 06:12:25;;;;;;;;;;;10.70;99.90;;;;;;4994892;28;20048;-55
2022/05/04 06:14:52;;;;;;;7.22;5.68;;;10.80;99.90;;;;;;4994800;28;19922;-54
2022/05/04 06:17:19;;;;;;;;;;;10.90;99.90;;;;;;4992117;28;20056;-54
2022/05/04 06:19:47;;;;;;;8.98;6.63;;;10.90;99.90;;;;;;4993612;28;19925;-54
2022/05/04 06:22:15;;;;;;;6.53;5.78;;;11.00;99.90;;;;;;4994564;28;20034;-57
2022/05/04 06:24:41;;;;;;;8.75;6.50;;;11.00;99.90;;;;;;4992814;28;20050;-57
2022/05/04 06:27:08;;;;;;;6.85;6.15;;;11.10;99.90;;;;;;4993925;28;20810;-55
2022/05/04 06:35:07;;;;;;;6.07;5.35;;;11.30;99.90;;;;;;4990864;28;20547;-60
2022/05/04 06:37:34;;;;;;;7.68;5.97;;;11.40;99.90;;;;;;4993173;28;20346;-58
2022/05/04 06:40:01;;;;;;;5.80;5.20;;;11.50;99.90;;;;;;4993419;28;20088;-57
2022/05/04 06:42:27;;;;;;;5.95;5.32;;;11.50;99.90;;;;;;4994228;28;20049;-51
2022/05/04 06:45:01;;;;;;;10.60;6.25;;;11.60;99.90;;;;;;4993592;28;20051;-51
2022/05/04 06:47:27;;;;;;;6.65;5.97;;;11.70;99.90;;;;;;4993121;28;20060;-53
2022/05/04 06:49:54;;;;;;;;;;;11.70;99.90;;;;;;4992687;28;20058;-55
2022/05/04 06:52:24;;;;;;;6.30;5.32;;;11.80;99.90;;;;;;4993186;28;19937;-53
2022/05/04 06:54:52;;;;;;;10.05;5.80;;;11.80;99.90;;;;;;4993785;28;20125;-51
2022/05/04 06:57:19;;;;;;;6.38;5.43;;;11.90;99.90;;;;;;4992866;28;20467;-56
2022/05/04 06:59:46;;;;;;;5.47;4.97;;;12.00;99.90;;;;;;4993563;28;20042;-52
2022/05/04 07:02:14;;;;;;;7.72;5.80;;;12.10;99.90;;;;;;4993545;28;20433;-54
2022/05/04 07:04:41;;;;;;;8.77;5.65;;;12.20;99.90;;;;;;4994293;28;20883;-53
2022/05/04 07:07:08;;;;;;;7.30;6.47;;;12.30;99.90;;;;;;4992710;28;20046;-57
2022/05/04 07:09:34;;;;;;;10.23;6.28;;;12.40;99.90;;;;;;4992995;28;20108;-53
2022/05/04 07:12:01;;;;;;;;;;;12.50;99.90;;;;;;4994340;28;20054;-54
2022/05/04 07:14:28;;;;;;;7.95;5.28;;;12.60;99.90;;;;;;4993276;28;19925;-52
2022/05/04 07:16:55;;;;;;;;;;;12.70;99.90;;;;;;4993600;28;20199;-53
2022/05/04 07:19:22;;;;;;;10.38;5.65;;;12.80;99.90;;;;;;4993308;28;20268;-57
2022/05/04 07:21:48;;;;;;;8.13;5.75;;;12.90;99.90;;;;;;4994100;28;20042;-54
2022/05/04 07:24:15;;;;;;;6.55;5.57;;;13.00;99.90;;;;;;4993549;28;20034;-54
2022/05/04 07:26:42;;;;;;;7.80;5.63;;;13.20;99.90;;;;;;4992123;28;20053;-63
2022/05/04 07:29:10;;;;;;;7.97;5.65;;;13.30;99.90;;;;;;4992146;28;20054;-59
2022/05/04 07:31:44;;;;;;;9.18;6.00;;;13.40;99.90;;;;;;4993615;28;20046;-56
2022/05/04 07:34:17;;;;;;;5.82;5.03;;;13.40;99.90;;;;;;4989236;28;20045;-59
2022/05/04 07:36:45;;;;;;;15.35;6.18;;;13.50;99.90;;;;;;4992258;28;20054;-58
2022/05/04 07:42:21;;;;;;;6.25;5.32;;;13.70;99.90;;;;;;4994303;28;20070;-58
2022/05/04 07:44:44;;;;;;;11.88;5.90;;;14.00;99.90;;;;;;4994681;28;20280;-57
2022/05/04 07:47:11;;;;;;;;;;;14.20;99.90;;;;;;4997098;28;20057;-56
2022/05/04 07:49:38;;;;;;;9.07;6.50;;;14.30;99.90;;;;;;4997468;28;19936;-58
2022/05/04 07:52:05;;;;;;;6.13;5.53;;;14.40;99.90;;;;;;4995778;28;20054;-56
2022/05/04 07:54:32;;;;;;;6.18;5.07;;;14.40;99.90;;;;;;4996336;28;20061;-58
2022/05/04 07:56:58;;;;;;;;;;;14.50;99.90;;;;;;4996842;28;20242;-56
2022/05/04 07:59:25;;;;;;;5.35;4.72;;;14.70;99.90;;;;;;4996373;28;19925;-54
2022/05/04 08:04:37;;;;;;;6.47;5.03;;;14.90;99.90;;;;;;4996770;28;20049;-60
2022/05/04 08:07:04;;;;;;;5.88;4.95;;;15.10;99.90;;;;;;4995420;28;20270;-62
2022/05/04 08:09:36;;;;;;;6.05;5.07;;;15.30;99.90;;;;;;4996657;28;20566;-61
2022/05/04 08:12:06;;;;;;;7.65;5.45;;;15.50;99.90;;;;;;4996911;28;20110;-61
2022/05/04 08:14:33;;;;;;;6.25;5.60;;;15.80;99.90;;;;;;4995648;28;20049;-60
2022/05/04 08:17:00;;;;;;;11.10;6.65;;;15.90;99.90;;;;;;4995154;28;20069;-61
2022/05/04 08:19:27;;;;;;;7.35;5.70;;;16.00;99.90;;;;;;4996065;28;20069;-62
2022/05/04 08:21:56;;;;;;;6.75;5.68;;;16.10;99.90;;;;;;4996323;28;20057;-56
2022/05/04 08:24:23;;;;;;;15.82;5.60;;;16.20;99.90;;;;;;4995015;28;20053;-58
2022/05/04 08:26:50;;;;;;;8.18;5.10;;;16.20;99.90;;;;;;4993840;28;20046;-58
2022/05/04 08:29:17;;;;;;;11.02;5.57;;;16.40;99.90;;;;;;4996053;28;20053;-57
2022/05/04 08:31:44;;;;;;;5.80;5.28;;;16.50;99.90;;;;;;4996539;28;20062;-58
2022/05/04 08:34:11;;;;;;;6.72;4.38;;;16.50;99.90;;;;;;4993888;28;20048;-57
2022/05/04 08:36:38;;;;;;;;;;;16.60;99.90;;;;;;4994090;28;20077;-57
2022/05/04 08:39:09;;;;;;;7.87;5.73;;;16.90;99.90;;;;;;4993426;28;19932;-58
2022/05/04 08:41:40;;;;;;;8.13;5.88;;;17.20;99.90;;;;;;4994566;28;20050;-59
2022/05/04 08:44:09;;;;;;;11.73;5.95;;;17.50;99.90;;;;;;4995112;28;20050;-58
2022/05/04 08:46:39;;;;;;;8.07;6.20;;;17.90;99.90;;;;;;4996231;28;20048;-58
2022/05/04 08:49:06;;;;;;;8.05;6.13;;;18.20;99.90;;;;;;4995179;28;20034;-65
2022/05/04 08:51:36;;;;;;;6.78;6.05;;;18.40;99.90;;;;;;4995605;28;20631;-62
2022/05/04 08:54:04;;;;;;;8.40;5.65;;;18.60;99.90;;;;;;4995557;28;20061;-63
2022/05/04 08:56:32;;;;;;;11.13;6.70;;;18.90;99.90;;;;;;4994350;28;20045;-63
2022/05/04 08:59:00;;;;;;;11.07;6.38;;;19.00;99.90;;;;;;4994901;28;20058;-62
2022/05/04 09:01:27;;;;;;;10.00;6.30;;;19.00;99.90;;;;;;4995491;28;20119;-58
2022/05/04 09:03:54;;;;;;;6.70;3.72;;;19.10;99.90;;;;;;4993843;28;20136;-56
2022/05/04 09:06:28;;;;;;;7.68;5.20;;;19.30;99.90;;;;;;4994811;28;20054;-57
2022/05/04 09:08:56;;;;;;;8.88;5.47;;;19.60;99.90;;;;;;4994716;28;20045;-62
2022/05/04 09:11:24;;;;;;;8.63;5.85;;;19.90;99.90;;;;;;4994230;28;20061;-56
2022/05/04 09:13:51;;;;;;;7.72;5.28;;;20.10;99.90;;;;;;4995384;28;20042;-53
2022/05/04 09:16:25;;;;;;;7.88;5.53;;;20.20;99.90;;;;;;4995691;28;20042;-56
2022/05/04 09:18:52;;;;;;;18.48;6.13;;;20.40;96.80;;;;;;4994047;28;20038;-53
2022/05/04 09:21:21;;;;;;;9.15;5.32;;;20.60;96.20;;;;;;4995592;28;20046;-56
2022/05/04 09:23:53;;;;;;;8.05;5.25;;;20.80;95.20;;;;;;4995484;28;20042;-52
2022/05/04 09:26:21;;;;;;;6.13;5.40;;;21.00;91.70;;;;;;4995298;28;20560;-54
2022/05/04 09:28:57;;;;;;;7.45;4.43;;;21.10;86.60;;;;;;4993906;28;20190;-55
2022/05/04 09:31:25;;;;;;;7.63;3.90;;;21.10;84.80;;;;;;4994842;28;20239;-55
2022/05/04 09:34:00;;;;;;;5.28;4.00;;;21.00;75.70;;;;;;4994724;28;20522;-56
2022/05/04 09:36:36;;;;;;;4.72;3.85;;;20.80;73.30;;;;;;4986377;28;20064;-57
2022/05/04 09:45:14;;;;;;;4.32;3.13;;;20.00;70.80;;;;;;4994712;28;20041;-56
2022/05/04 09:47:46;;;;;;;5.78;3.20;;;19.70;70.60;;;;;;4994331;28;20037;-56
2022/05/04 09:50:17;;;;;;;4.80;3.70;;;19.40;71.20;;;;;;4994148;28;20121;-55
2022/05/04 09:52:45;;;;;;;5.80;4.13;;;19.20;69.80;;;;;;4994816;28;20060;-57
2022/05/04 09:55:22;;;;;;;4.78;3.42;;;18.90;71.10;;;;;;4994881;28;20597;-59
2022/05/04 09:57:51;;;;;;;3.50;3.17;;;18.70;72.20;;;;;;4992254;28;20057;-60
2022/05/04 10:00:21;;;;;;;4.03;3.30;;;18.50;74.70;;;;;;4994797;28;20081;-60
2022/05/04 10:02:48;;;;;;;4.57;3.50;;;18.30;73.90;;;;;;4992788;28;20069;-61
2022/05/04 10:05:20;;;;;;;3.50;2.90;;;18.20;74.70;;;;;;4993158;28;20054;-60
2022/05/04 10:07:49;;;;;;;7.72;3.95;;;18.10;74.80;;;;;;4976088;28;20061;-60
2022/05/04 10:10:19;;;;;;;4.75;4.00;;;18.10;74.20;;;;;;4994830;28;20041;-60
2022/05/04 10:12:46;;;;;;;5.05;4.30;;;18.10;77.20;;;;;;4993344;28;20042;-58
2022/05/04 10:15:15;;;;;;;4.43;3.75;;;18.30;77.90;;;;;;4994551;28;20104;-59
2022/05/04 10:18:06;;;;;;;4.55;3.97;;;18.70;77.50;;;;;;4993855;28;20042;-59
2022/05/04 10:20:39;;;;;;;5.18;4.38;;;19.10;76.60;;;;;;4991718;28;20424;-59
2022/05/04 10:23:17;;;;;;;6.20;4.38;;;19.30;69.00;;;;;;4993051;28;20096;-60
2022/05/04 10:25:44;;;;;;;6.03;4.60;;;19.20;68.20;;;;;;4994238;28;20723;-60
2022/05/04 10:28:13;;;;;;;7.07;4.00;;;19.20;71.50;;;;;;4993632;28;20042;-60
2022/05/04 10:30:47;;;;;;;5.88;3.80;;;19.30;72.50;;;;;;4993183;28;20050;-58
2022/05/04 10:33:18;;;;;;;9.50;4.32;;;19.50;73.50;;;;;;4994608;28;20064;-61
2022/05/04 10:35:47;;;;;;;6.75;4.28;;;19.80;69.40;;;;;;4993530;28;20236;-59
2022/05/04 10:38:29;;;;;;;5.95;4.03;;;20.00;66.60;;;;;;4986438;28;20050;-60
2022/05/04 10:41:06;;;;;;;4.25;3.50;;;20.10;70.80;;;;;;4993856;28;20126;-55
2022/05/04 10:43:36;;;;;;;;;;;20.40;70.00;;;;;;4994006;28;20042;-54
2022/05/04 10:46:24;;;;;;;4.45;3.13;;;20.60;69.40;;;;;;4993957;28;20657;-56
2022/05/04 10:48:58;;;;;;;4.15;3.70;;;20.90;69.40;;;;;;4993749;28;20042;-57
2022/05/04 10:51:36;;;;;;;5.65;4.25;;;21.00;65.60;;;;;;4993919;28;20069;-55
2022/05/04 10:54:21;;;;;;;7.75;5.07;;;20.80;62.90;;;;;;4993498;28;20139;-55
2022/05/04 10:56:55;;;;;;;6.18;3.78;;;20.50;64.20;;;;;;4992641;28;20484;-56
2022/05/04 10:59:31;;;;;;;6.57;4.28;;;20.20;64.50;;;;;;4993259;28;20045;-60
2022/05/04 11:02:04;;;;;;;5.40;3.88;;;20.00;63.90;;;;;;4993782;28;20072;-60
2022/05/04 11:04:33;;;;;;;7.82;4.25;;;19.90;64.40;;;;;;4993294;28;20064;-60
2022/05/04 11:07:05;;;;;;;5.25;4.55;;;19.70;66.50;;;;;;4993275;28;20054;-58
2022/05/04 11:09:37;;;;;;;8.75;3.60;;;19.50;68.20;;;;;;4993399;28;20409;-59
2022/05/04 11:12:05;;;;;;;6.43;5.70;;;19.40;71.50;;;;;;4993820;28;20575;-58
2022/05/04 11:14:34;;;;;;;7.63;5.95;;;19.30;73.00;;;;;;4992292;28;20053;-56
2022/05/04 11:17:07;;;;;;;6.75;5.18;;;19.30;73.90;;;;;;4992214;28;20085;-57
2022/05/04 11:19:34;;;;;;;4.20;3.80;;;19.50;73.50;;;;;;4993795;28;20073;-57
2022/05/04 11:22:02;;;;;;;5.53;4.35;;;19.80;64.50;;;;;;4996876;28;20057;-57
2022/05/04 11:24:29;;;;;;;3.75;3.05;;;19.90;65.80;;;;;;4997508;28;20108;-55
2022/05/04 11:26:56;;;;;;;7.18;4.82;;;20.00;68.60;;;;;;4996055;28;20052;-56
2022/05/04 11:29:25;;;;;;;4.85;4.43;;;20.10;65.50;;;;;;4997542;28;20137;-56
2022/05/04 11:31:56;;;;;;;4.30;3.90;;;20.30;66.00;;;;;;4997250;28;20774;-55
2022/05/04 11:34:25;;;;;;;6.28;4.07;;;20.50;66.50;;;;;;4996734;28;20578;-61
2022/05/04 11:36:56;;;;;;;9.35;4.50;;;20.60;66.90;;;;;;4996160;28;20050;-61
2022/05/04 11:39:26;;;;;;;5.32;4.82;;;20.80;62.40;;;;;;4993084;28;20515;-61
2022/05/04 11:41:56;;;;;;;9.32;4.72;;;20.80;61.20;;;;;;4996404;28;20689;-59
2022/05/04 11:44:24;;;;;;;5.65;4.05;;;20.80;60.80;;;;;;4997054;28;20096;-58
2022/05/04 11:46:53;;;;;;;4.28;3.88;;;20.70;60.90;;;;;;4996652;28;20496;-57
2022/05/04 11:49:23;;;;;;;7.68;4.32;;;20.70;59.60;;;;;;4994321;28;20197;-57
2022/05/04 11:51:50;;;;;;;5.32;4.50;;;20.70;60.60;;;;;;4996987;28;20069;-60
2022/05/04 11:54:18;;;;;;;5.32;3.58;;;20.70;60.10;;;;;;4996672;28;20062;-57
2022/05/04 11:56:45;;;;;;;5.72;3.80;;;20.50;59.70;;;;;;4996284;28;20061;-58
2022/05/04 11:59:12;;;;;;;4.57;3.85;;;20.40;60.60;;;;;;4996620;28;20060;-58
2022/05/04 12:01:40;;;;;;;7.15;4.15;;;20.30;60.60;;;;;;4996597;28;20049;-58
2022/05/04 12:04:10;;;;;;;6.07;3.83;;;20.20;59.90;;;;;;4995189;28;20045;-58
2022/05/04 12:06:38;;;;;;;5.57;4.03;;;20.20;59.20;;;;;;4996373;28;20784;-58
2022/05/04 12:09:05;;;;;;;6.82;5.97;;;20.20;62.40;;;;;;4996009;28;20052;-58
2022/05/04 12:11:32;;;;;;;5.65;4.50;;;20.10;65.80;;;;;;4996135;28;20119;-57
2022/05/04 12:13:59;;;;;;;5.55;4.32;;;20.00;67.00;;;;;;4996171;28;20088;-57
2022/05/04 12:16:28;;;;;;;9.60;6.95;;;20.00;68.30;;;;;;4995215;28;20147;-58
2022/05/04 12:18:57;;;;;;;5.65;4.68;;;19.90;66.40;;;;;;4994326;28;20037;-58
2022/05/04 12:21:25;;;;;;;4.40;4.00;;;19.70;65.70;;;;;;4996171;28;20042;-57
2022/05/04 12:23:53;;;;;;;4.97;4.10;;;19.50;65.40;;;;;;4994541;28;20074;-57
2022/05/04 12:26:21;;;;;;;7.10;3.03;;;19.20;65.70;;;;;;4996100;28;20037;-57
2022/05/04 12:34:26;;;;;;;7.40;3.60;;;18.50;71.20;;;;;;4995287;28;20500;-57
2022/05/04 12:36:57;;;;;;;5.45;4.13;;;18.10;75.20;;;;;;4994979;28;20065;-55
2022/05/04 12:39:23;;;;;;;4.40;3.30;;;17.60;84.40;;;;;;4993639;28;20046;-57
2022/05/04 12:41:57;;;;;;;6.32;5.07;;;17.10;94.60;;;;;;4995596;28;20038;-57
2022/05/04 12:44:24;;;;;;;6.30;5.68;;;16.60;99.90;;;;;;4993940;28;20042;-56
2022/05/04 12:46:54;;;;;;;8.32;5.45;;;15.90;99.90;;;;;;4995208;28;20065;-56
2022/05/04 12:49:22;;;;;;;7.97;4.93;;;15.50;99.90;;;;;;4995925;28;20061;-56
2022/05/04 12:51:51;;;;;;;9.48;5.25;;;15.20;99.90;;;;;;4995687;28;20058;-57
2022/05/04 12:54:18;;;;;;;5.35;4.80;;;15.00;99.90;;;;;;4994882;28;20631;-55
2022/05/04 12:56:46;;;;;;;4.22;3.65;;;14.80;99.90;;;;;;4994593;28;20053;-57
2022/05/04 12:59:19;;;;;;;5.72;5.03;;;14.80;99.90;;;;;;4995617;28;20045;-57
2022/05/04 13:01:46;;;;;;;5.93;5.10;;;14.80;99.90;;;;;;4995471;28;20053;-57
2022/05/04 13:04:15;;;;;;;4.88;4.15;;;14.90;99.90;;;;;;4995337;28;20600;-58
2022/05/04 13:06:42;;;;;;;7.82;5.00;;;14.90;99.90;;;;;;4995323;28;20053;-56
2022/05/04 13:09:09;;;;;;;7.80;5.00;;;15.10;99.90;;;;;;4994720;28;20045;-57
2022/05/04 13:11:36;;;;;;;7.53;5.20;;;15.20;99.90;;;;;;4995235;28;20079;-57
2022/05/04 13:14:04;;;;;;;6.88;4.72;;;15.40;99.90;;;;;;4994670;28;20050;-57
2022/05/04 13:16:32;;;;;;;11.18;6.15;;;15.60;99.90;;;;;;4995089;28;20056;-57
2022/05/04 13:19:00;;;;;;;9.25;6.68;;;15.70;99.90;;;;;;4993350;28;20046;-58
2022/05/04 13:21:29;;;;;;;11.05;5.82;;;15.90;99.90;;;;;;4994749;28;20593;-57
2022/05/04 13:24:04;;;;;;;12.90;6.13;;;16.00;99.90;;;;;;4995150;28;20049;-56
2022/05/04 13:26:31;;;;;;;12.13;6.10;;;16.10;99.90;;;;;;4994907;28;20056;-56
2022/05/04 13:28:58;;;;;;;9.60;5.63;;;16.10;99.90;;;;;;4994507;28;20053;-57
2022/05/04 13:31:25;;;;;;;7.47;5.55;;;16.20;99.90;;;;;;4994153;28;20492;-57
2022/05/04 13:33:52;;;;;;;7.10;5.97;;;16.20;99.90;;;;;;4994571;28;20057;-57
2022/05/04 13:36:20;;;;;;;10.82;6.20;;;16.30;99.90;;;;;;4994517;28;20728;-58
2022/05/04 13:38:47;;;;;;;7.57;6.72;;;16.30;99.90;;;;;;4991221;28;20083;-56